sensor_id;sensor_type;location;lat;lon;timestamp;temperature;humidity
4052;DHT22;2040;50.924;11.604;2023-05-07T00:02:20;10.60;99.90
4052;DHT22;2040;50.924;11.604;2023-05-07T00:04:46;10.70;99.90
4052;DHT22;2040;50.924;11.604;2023-05-07T00:07:12;10.80;99.90
4052;DHT22;2040;50.924;11.604;2023-05-07T00:09:37;10.80;99.90
4052;DHT22;2040;50.924;11.604;2023-05-07T00:12:03;10.80;99.90
4052;DHT22;2040;50.924;11.604;2023-05-07T00:14:28;10.80;99.90
4052;DHT22;2040;50.924;11.604;2023-05-07T00:16:54;10.70;99.90
4052;DHT22;2040;50.924;11.604;2023-05-07T00:19:20;10.70;99.90
4052;DHT22;2040;50.924;11.604;2023-05-07T00:21:46;10.60;99.90
4052;DHT22;2040;50.924;11.604;2023-05-07T00:24:12;10.70;99.90
4052;DHT22;2040;50.924;11.604;2023-05-07T00:26:37;10.70;99.90
4052;DHT22;2040;50.924;11.604;2023-05-07T00:29:03;10.70;99.90
4052;DHT22;2040;50.924;11.604;2023-05-07T00:31:28;10.70;99.90
4052;DHT22;2040;50.924;11.604;2023-05-07T00:33:54;10.60;99.90
4052;DHT22;2040;50.924;11.604;2023-05-07T00:36:19;10.70;99.90
4052;DHT22;2040;50.924;11.604;2023-05-07T00:38:45;10.70;99.90
4052;DHT22;2040;50.924;11.604;2023-05-07T00:41:10;10.80;99.90
4052;DHT22;2040;50.924;11.604;2023-05-07T00:43:36;10.80;99.90
4052;DHT22;2040;50.924;11.604;2023-05-07T00:46:01;10.80;99.90
4052;DHT22;2040;50.924;11.604;2023-05-07T00:48:27;10.70;99.90
4052;DHT22;2040;50.924;11.604;2023-05-07T00:50:53;10.70;99.90
4052;DHT22;2040;50.924;11.604;2023-05-07T00:53:19;10.70;99.90
4052;DHT22;2040;50.924;11.604;2023-05-07T00:55:45;10.70;99.90
4052;DHT22;2040;50.924;11.604;2023-05-07T00:58:10;10.70;99.90
4052;DHT22;2040;50.924;11.604;2023-05-07T01:00:36;10.60;99.90
4052;DHT22;2040;50.924;11.604;2023-05-07T01:03:01;10.60;99.90
4052;DHT22;2040;50.924;11.604;2023-05-07T01:05:28;10.50;99.90
4052;DHT22;2040;50.924;11.604;2023-05-07T01:07:54;10.60;99.90
4052;DHT22;2040;50.924;11.604;2023-05-07T01:10:21;10.60;99.90
4052;DHT22;2040;50.924;11.604;2023-05-07T01:12:47;10.70;99.90
4052;DHT22;2040;50.924;11.604;2023-05-07T01:15:14;10.60;99.90
4052;DHT22;2040;50.924;11.604;2023-05-07T01:17:41;10.60;99.90
4052;DHT22;2040;50.924;11.604;2023-05-07T01:20:07;10.70;99.90
4052;DHT22;2040;50.924;11.604;2023-05-07T01:22:38;10.70;99.90
4052;DHT22;2040;50.924;11.604;2023-05-07T01:25:05;10.80;99.90
4052;DHT22;2040;50.924;11.604;2023-05-07T01:27:31;10.80;99.90
4052;DHT22;2040;50.924;11.604;2023-05-07T01:29:58;10.70;99.90
4052;DHT22;2040;50.924;11.604;2023-05-07T01:32:56;10.60;99.90
4052;DHT22;2040;50.924;11.604;2023-05-07T01:35:26;10.60;99.90
4052;DHT22;2040;50.924;11.604;2023-05-07T01:37:53;10.60;99.90
4052;DHT22;2040;50.924;11.604;2023-05-07T01:40:19;10.60;99.90
4052;DHT22;2040;50.924;11.604;2023-05-07T01:42:46;10.60;99.90
4052;DHT22;2040;50.924;11.604;2023-05-07T01:45:13;10.70;99.90
4052;DHT22;2040;50.924;11.604;2023-05-07T01:47:39;10.70;99.90
4052;DHT22;2040;50.924;11.604;2023-05-07T01:50:09;10.70;99.90
4052;DHT22;2040;50.924;11.604;2023-05-07T01:52:37;10.70;99.90
4052;DHT22;2040;50.924;11.604;2023-05-07T01:55:03;10.70;99.90
4052;DHT22;2040;50.924;11.604;2023-05-07T01:57:28;10.80;99.90
4052;DHT22;2040;50.924;11.604;2023-05-07T01:59:54;10.60;99.90
4052;DHT22;2040;50.924;11.604;2023-05-07T02:02:19;10.50;99.90
4052;DHT22;2040;50.924;11.604;2023-05-07T02:04:45;10.60;99.90
4052;DHT22;2040;50.924;11.604;2023-05-07T02:07:11;10.50;99.90
4052;DHT22;2040;50.924;11.604;2023-05-07T02:09:36;10.50;99.90
4052;DHT22;2040;50.924;11.604;2023-05-07T02:12:02;10.60;99.90
4052;DHT22;2040;50.924;11.604;2023-05-07T02:14:27;10.50;99.90
4052;DHT22;2040;50.924;11.604;2023-05-07T02:16:53;10.50;99.90
4052;DHT22;2040;50.924;11.604;2023-05-07T02:19:18;10.50;99.90
4052;DHT22;2040;50.924;11.604;2023-05-07T02:21:46;10.40;99.90
4052;DHT22;2040;50.924;11.604;2023-05-07T02:24:12;10.40;99.90
4052;DHT22;2040;50.924;11.604;2023-05-07T02:26:39;10.50;99.90
4052;DHT22;2040;50.924;11.604;2023-05-07T02:29:04;10.50;99.90
4052;DHT22;2040;50.924;11.604;2023-05-07T02:31:30;10.40;99.90
4052;DHT22;2040;50.924;11.604;2023-05-07T02:33:55;10.40;99.90
4052;DHT22;2040;50.924;11.604;2023-05-07T02:36:21;10.40;99.90
4052;DHT22;2040;50.924;11.604;2023-05-07T02:38:46;10.30;99.90
4052;DHT22;2040;50.924;11.604;2023-05-07T02:41:12;10.30;99.90
4052;DHT22;2040;50.924;11.604;2023-05-07T02:43:37;10.30;99.90
4052;DHT22;2040;50.924;11.604;2023-05-07T02:46:04;10.20;99.90
4052;DHT22;2040;50.924;11.604;2023-05-07T02:48:30;10.20;99.90
4052;DHT22;2040;50.924;11.604;2023-05-07T02:50:56;10.20;99.90
4052;DHT22;2040;50.924;11.604;2023-05-07T02:53:21;10.30;99.90
4052;DHT22;2040;50.924;11.604;2023-05-07T02:55:47;10.30;99.90
4052;DHT22;2040;50.924;11.604;2023-05-07T02:58:13;10.20;99.90
4052;DHT22;2040;50.924;11.604;2023-05-07T03:00:38;10.20;99.90
4052;DHT22;2040;50.924;11.604;2023-05-07T03:03:04;10.10;99.90
4052;DHT22;2040;50.924;11.604;2023-05-07T03:05:29;10.20;99.90
4052;DHT22;2040;50.924;11.604;2023-05-07T03:07:55;10.20;99.90
4052;DHT22;2040;50.924;11.604;2023-05-07T03:10:21;10.20;99.90
4052;DHT22;2040;50.924;11.604;2023-05-07T03:12:46;10.20;99.90
4052;DHT22;2040;50.924;11.604;2023-05-07T03:15:12;10.20;99.90
4052;DHT22;2040;50.924;11.604;2023-05-07T03:17:38;10.20;99.90
4052;DHT22;2040;50.924;11.604;2023-05-07T03:20:04;10.10;99.90
4052;DHT22;2040;50.924;11.604;2023-05-07T03:22:30;10.10;99.90
4052;DHT22;2040;50.924;11.604;2023-05-07T03:24:55;10.20;99.90
4052;DHT22;2040;50.924;11.604;2023-05-07T03:27:21;10.20;99.90
4052;DHT22;2040;50.924;11.604;2023-05-07T03:29:46;10.20;99.90
4052;DHT22;2040;50.924;11.604;2023-05-07T03:32:12;10.20;99.90
4052;DHT22;2040;50.924;11.604;2023-05-07T03:34:37;10.20;99.90
4052;DHT22;2040;50.924;11.604;2023-05-07T03:37:03;10.10;99.90
4052;DHT22;2040;50.924;11.604;2023-05-07T03:39:28;10.20;99.90
4052;DHT22;2040;50.924;11.604;2023-05-07T03:41:54;10.10;99.90
4052;DHT22;2040;50.924;11.604;2023-05-07T03:44:19;10.10;99.90
4052;DHT22;2040;50.924;11.604;2023-05-07T03:46:45;10.20;99.90
4052;DHT22;2040;50.924;11.604;2023-05-07T03:49:11;10.20;99.90
4052;DHT22;2040;50.924;11.604;2023-05-07T03:51:36;10.30;99.90
4052;DHT22;2040;50.924;11.604;2023-05-07T03:54:02;10.30;99.90
4052;DHT22;2040;50.924;11.604;2023-05-07T03:56:27;10.20;99.90
4052;DHT22;2040;50.924;11.604;2023-05-07T03:58:53;10.20;99.90
4052;DHT22;2040;50.924;11.604;2023-05-07T04:01:19;10.30;99.90
4052;DHT22;2040;50.924;11.604;2023-05-07T04:03:45;10.30;99.90
4052;DHT22;2040;50.924;11.604;2023-05-07T04:06:10;10.10;99.90
4052;DHT22;2040;50.924;11.604;2023-05-07T04:08:36;10.10;99.90
4052;DHT22;2040;50.924;11.604;2023-05-07T04:11:01;10.00;99.90
4052;DHT22;2040;50.924;11.604;2023-05-07T04:13:27;10.10;99.90
4052;DHT22;2040;50.924;11.604;2023-05-07T04:15:56;10.00;99.90
4052;DHT22;2040;50.924;11.604;2023-05-07T04:18:21;10.10;99.90
4052;DHT22;2040;50.924;11.604;2023-05-07T04:20:47;10.00;99.90
4052;DHT22;2040;50.924;11.604;2023-05-07T04:23:14;9.90;99.90
4052;DHT22;2040;50.924;11.604;2023-05-07T04:25:40;10.00;99.90
4052;DHT22;2040;50.924;11.604;2023-05-07T04:28:06;10.00;99.90
4052;DHT22;2040;50.924;11.604;2023-05-07T04:30:31;9.90;99.90
4052;DHT22;2040;50.924;11.604;2023-05-07T04:32:57;9.80;99.90
4052;DHT22;2040;50.924;11.604;2023-05-07T04:35:23;9.90;99.90
4052;DHT22;2040;50.924;11.604;2023-05-07T04:37:48;9.80;99.90
4052;DHT22;2040;50.924;11.604;2023-05-07T04:40:14;9.90;99.90
4052;DHT22;2040;50.924;11.604;2023-05-07T04:42:39;9.80;99.90
4052;DHT22;2040;50.924;11.604;2023-05-07T04:45:06;9.80;99.90
4052;DHT22;2040;50.924;11.604;2023-05-07T04:47:31;9.70;99.90
4052;DHT22;2040;50.924;11.604;2023-05-07T04:50:00;9.60;99.90
4052;DHT22;2040;50.924;11.604;2023-05-07T04:52:25;9.60;99.90
4052;DHT22;2040;50.924;11.604;2023-05-07T04:54:52;9.60;99.90
4052;DHT22;2040;50.924;11.604;2023-05-07T04:57:17;9.70;99.90
4052;DHT22;2040;50.924;11.604;2023-05-07T04:59:43;9.80;99.90
4052;DHT22;2040;50.924;11.604;2023-05-07T05:02:10;9.80;99.90
4052;DHT22;2040;50.924;11.604;2023-05-07T05:04:36;9.60;99.90
4052;DHT22;2040;50.924;11.604;2023-05-07T05:07:02;9.60;99.90
4052;DHT22;2040;50.924;11.604;2023-05-07T05:09:29;9.70;99.90
4052;DHT22;2040;50.924;11.604;2023-05-07T05:11:55;9.80;99.90
4052;DHT22;2040;50.924;11.604;2023-05-07T05:14:21;9.80;99.90
4052;DHT22;2040;50.924;11.604;2023-05-07T05:16:46;9.70;99.90
4052;DHT22;2040;50.924;11.604;2023-05-07T05:19:12;9.70;99.90
4052;DHT22;2040;50.924;11.604;2023-05-07T05:21:37;9.60;99.90
4052;DHT22;2040;50.924;11.604;2023-05-07T05:24:04;9.60;99.90
4052;DHT22;2040;50.924;11.604;2023-05-07T05:26:30;9.60;99.90
4052;DHT22;2040;50.924;11.604;2023-05-07T05:28:55;9.70;99.90
4052;DHT22;2040;50.924;11.604;2023-05-07T05:31:21;9.90;99.90
4052;DHT22;2040;50.924;11.604;2023-05-07T05:33:46;9.80;99.90
4052;DHT22;2040;50.924;11.604;2023-05-07T05:36:12;9.90;99.90
4052;DHT22;2040;50.924;11.604;2023-05-07T05:38:39;9.90;99.90
4052;DHT22;2040;50.924;11.604;2023-05-07T05:41:05;9.90;99.90
4052;DHT22;2040;50.924;11.604;2023-05-07T05:43:30;9.90;99.90
4052;DHT22;2040;50.924;11.604;2023-05-07T05:45:56;9.80;99.90
4052;DHT22;2040;50.924;11.604;2023-05-07T05:48:22;9.80;99.90
4052;DHT22;2040;50.924;11.604;2023-05-07T05:50:48;9.80;99.90
4052;DHT22;2040;50.924;11.604;2023-05-07T05:53:13;9.80;99.90
4052;DHT22;2040;50.924;11.604;2023-05-07T05:55:39;9.80;99.90
4052;DHT22;2040;50.924;11.604;2023-05-07T05:58:05;9.90;99.90
4052;DHT22;2040;50.924;11.604;2023-05-07T06:00:32;10.00;99.90
4052;DHT22;2040;50.924;11.604;2023-05-07T06:02:57;10.00;99.90
4052;DHT22;2040;50.924;11.604;2023-05-07T06:05:23;10.00;99.90
4052;DHT22;2040;50.924;11.604;2023-05-07T06:07:49;10.00;99.90
4052;DHT22;2040;50.924;11.604;2023-05-07T06:10:14;10.10;99.90
4052;DHT22;2040;50.924;11.604;2023-05-07T06:12:40;10.10;99.90
4052;DHT22;2040;50.924;11.604;2023-05-07T06:15:06;10.10;99.90
4052;DHT22;2040;50.924;11.604;2023-05-07T06:17:31;10.10;99.90
4052;DHT22;2040;50.924;11.604;2023-05-07T06:19:57;10.10;99.90
4052;DHT22;2040;50.924;11.604;2023-05-07T06:22:22;10.10;99.90
4052;DHT22;2040;50.924;11.604;2023-05-07T06:24:48;10.10;99.90
4052;DHT22;2040;50.924;11.604;2023-05-07T06:27:14;10.00;99.90
4052;DHT22;2040;50.924;11.604;2023-05-07T06:29:39;10.00;99.90
4052;DHT22;2040;50.924;11.604;2023-05-07T06:34:33;10.00;99.90
4052;DHT22;2040;50.924;11.604;2023-05-07T06:36:59;10.10;99.90
4052;DHT22;2040;50.924;11.604;2023-05-07T06:39:25;10.10;99.90
4052;DHT22;2040;50.924;11.604;2023-05-07T06:41:50;10.20;99.90
4052;DHT22;2040;50.924;11.604;2023-05-07T06:44:16;10.10;99.90
4052;DHT22;2040;50.924;11.604;2023-05-07T06:46:41;10.00;99.90
4052;DHT22;2040;50.924;11.604;2023-05-07T06:49:07;10.00;99.90
4052;DHT22;2040;50.924;11.604;2023-05-07T06:51:33;10.00;99.90
4052;DHT22;2040;50.924;11.604;2023-05-07T06:53:58;9.90;99.90
4052;DHT22;2040;50.924;11.604;2023-05-07T06:56:24;10.00;99.90
4052;DHT22;2040;50.924;11.604;2023-05-07T06:58:50;10.10;99.90
4052;DHT22;2040;50.924;11.604;2023-05-07T07:01:16;10.20;99.90
4052;DHT22;2040;50.924;11.604;2023-05-07T07:03:41;10.30;99.90
4052;DHT22;2040;50.924;11.604;2023-05-07T07:06:07;10.30;99.90
4052;DHT22;2040;50.924;11.604;2023-05-07T07:08:32;10.40;99.90
4052;DHT22;2040;50.924;11.604;2023-05-07T07:10:58;10.20;99.90
4052;DHT22;2040;50.924;11.604;2023-05-07T07:13:24;10.10;99.90
4052;DHT22;2040;50.924;11.604;2023-05-07T07:15:49;10.10;99.90
4052;DHT22;2040;50.924;11.604;2023-05-07T07:18:15;10.10;99.90
4052;DHT22;2040;50.924;11.604;2023-05-07T07:20:41;10.10;99.90
4052;DHT22;2040;50.924;11.604;2023-05-07T07:23:06;10.10;99.90
4052;DHT22;2040;50.924;11.604;2023-05-07T07:25:32;10.30;99.90
4052;DHT22;2040;50.924;11.604;2023-05-07T07:27:57;10.40;99.90
4052;DHT22;2040;50.924;11.604;2023-05-07T07:30:23;10.50;99.90
4052;DHT22;2040;50.924;11.604;2023-05-07T07:32:49;10.50;99.90
4052;DHT22;2040;50.924;11.604;2023-05-07T07:35:14;10.30;99.90
4052;DHT22;2040;50.924;11.604;2023-05-07T07:37:40;10.30;99.90
4052;DHT22;2040;50.924;11.604;2023-05-07T07:40:06;10.30;99.90
4052;DHT22;2040;50.924;11.604;2023-05-07T07:42:32;10.30;99.90
4052;DHT22;2040;50.924;11.604;2023-05-07T07:44:57;10.30;99.90
4052;DHT22;2040;50.924;11.604;2023-05-07T07:47:23;10.40;99.90
4052;DHT22;2040;50.924;11.604;2023-05-07T07:49:48;10.50;99.90
4052;DHT22;2040;50.924;11.604;2023-05-07T07:52:14;10.50;99.90
4052;DHT22;2040;50.924;11.604;2023-05-07T07:54:39;10.60;99.90
4052;DHT22;2040;50.924;11.604;2023-05-07T07:57:05;10.60;99.90
4052;DHT22;2040;50.924;11.604;2023-05-07T07:59:31;10.60;99.90
4052;DHT22;2040;50.924;11.604;2023-05-07T08:01:56;10.50;99.90
4052;DHT22;2040;50.924;11.604;2023-05-07T08:04:22;10.50;99.90
4052;DHT22;2040;50.924;11.604;2023-05-07T08:06:48;10.50;99.90
4052;DHT22;2040;50.924;11.604;2023-05-07T08:09:14;10.60;99.90
4052;DHT22;2040;50.924;11.604;2023-05-07T08:11:39;10.50;99.90
4052;DHT22;2040;50.924;11.604;2023-05-07T08:14:05;10.50;99.90
4052;DHT22;2040;50.924;11.604;2023-05-07T08:16:31;10.60;99.90
4052;DHT22;2040;50.924;11.604;2023-05-07T08:18:56;10.60;99.90
4052;DHT22;2040;50.924;11.604;2023-05-07T08:21:22;10.70;99.90
4052;DHT22;2040;50.924;11.604;2023-05-07T08:23:48;10.70;99.90
4052;DHT22;2040;50.924;11.604;2023-05-07T08:26:14;10.70;99.90
4052;DHT22;2040;50.924;11.604;2023-05-07T08:28:40;10.90;99.90
4052;DHT22;2040;50.924;11.604;2023-05-07T08:31:05;11.00;99.90
4052;DHT22;2040;50.924;11.604;2023-05-07T08:33:31;11.10;99.90
4052;DHT22;2040;50.924;11.604;2023-05-07T08:35:57;11.20;99.90
4052;DHT22;2040;50.924;11.604;2023-05-07T08:38:22;11.20;99.90
4052;DHT22;2040;50.924;11.604;2023-05-07T08:40:48;11.30;99.90
4052;DHT22;2040;50.924;11.604;2023-05-07T08:43:14;11.20;99.90
4052;DHT22;2040;50.924;11.604;2023-05-07T08:45:41;11.30;99.90
4052;DHT22;2040;50.924;11.604;2023-05-07T08:48:15;11.40;99.90
4052;DHT22;2040;50.924;11.604;2023-05-07T08:50:41;11.40;99.90
4052;DHT22;2040;50.924;11.604;2023-05-07T08:53:06;11.30;99.90
4052;DHT22;2040;50.924;11.604;2023-05-07T08:55:32;11.30;99.90
4052;DHT22;2040;50.924;11.604;2023-05-07T08:57:59;11.30;99.90
4052;DHT22;2040;50.924;11.604;2023-05-07T09:00:24;11.30;99.90
4052;DHT22;2040;50.924;11.604;2023-05-07T09:02:52;11.40;99.90
4052;DHT22;2040;50.924;11.604;2023-05-07T09:05:18;11.50;99.90
4052;DHT22;2040;50.924;11.604;2023-05-07T09:07:43;11.60;99.90
4052;DHT22;2040;50.924;11.604;2023-05-07T09:10:09;11.60;99.90
4052;DHT22;2040;50.924;11.604;2023-05-07T09:12:35;11.90;99.90
4052;DHT22;2040;50.924;11.604;2023-05-07T09:15:01;12.10;99.90
4052;DHT22;2040;50.924;11.604;2023-05-07T09:17:28;11.90;99.90
4052;DHT22;2040;50.924;11.604;2023-05-07T09:19:53;11.80;99.90
4052;DHT22;2040;50.924;11.604;2023-05-07T09:22:19;11.60;99.90
4052;DHT22;2040;50.924;11.604;2023-05-07T09:24:50;11.50;99.90
4052;DHT22;2040;50.924;11.604;2023-05-07T09:27:17;11.50;99.90
4052;DHT22;2040;50.924;11.604;2023-05-07T09:29:43;11.70;99.90
4052;DHT22;2040;50.924;11.604;2023-05-07T09:32:10;11.70;99.90
4052;DHT22;2040;50.924;11.604;2023-05-07T09:34:36;11.70;99.90
4052;DHT22;2040;50.924;11.604;2023-05-07T09:37:05;11.80;99.90
4052;DHT22;2040;50.924;11.604;2023-05-07T09:39:46;11.80;99.90
4052;DHT22;2040;50.924;11.604;2023-05-07T09:42:12;11.70;99.90
4052;DHT22;2040;50.924;11.604;2023-05-07T09:44:40;11.80;99.90
4052;DHT22;2040;50.924;11.604;2023-05-07T09:47:06;11.80;99.90
4052;DHT22;2040;50.924;11.604;2023-05-07T09:49:34;11.70;99.90
4052;DHT22;2040;50.924;11.604;2023-05-07T09:52:02;11.70;99.90
4052;DHT22;2040;50.924;11.604;2023-05-07T09:54:29;11.70;99.90
4052;DHT22;2040;50.924;11.604;2023-05-07T09:56:55;11.80;99.90
4052;DHT22;2040;50.924;11.604;2023-05-07T09:59:22;12.00;99.90
4052;DHT22;2040;50.924;11.604;2023-05-07T10:01:49;12.10;99.90
4052;DHT22;2040;50.924;11.604;2023-05-07T10:04:14;12.10;99.90
4052;DHT22;2040;50.924;11.604;2023-05-07T10:06:40;12.00;99.90
4052;DHT22;2040;50.924;11.604;2023-05-07T10:09:06;12.10;99.90
4052;DHT22;2040;50.924;11.604;2023-05-07T10:11:33;12.20;99.90
4052;DHT22;2040;50.924;11.604;2023-05-07T10:13:59;12.20;99.90
4052;DHT22;2040;50.924;11.604;2023-05-07T10:16:36;12.20;99.90
4052;DHT22;2040;50.924;11.604;2023-05-07T10:19:06;12.40;99.90
4052;DHT22;2040;50.924;11.604;2023-05-07T10:21:36;12.50;99.90
4052;DHT22;2040;50.924;11.604;2023-05-07T10:24:09;12.30;99.90
4052;DHT22;2040;50.924;11.604;2023-05-07T10:26:41;12.20;99.90
4052;DHT22;2040;50.924;11.604;2023-05-07T10:29:18;12.00;99.90
4052;DHT22;2040;50.924;11.604;2023-05-07T10:34:37;12.00;99.90
4052;DHT22;2040;50.924;11.604;2023-05-07T10:37:04;12.20;99.90
4052;DHT22;2040;50.924;11.604;2023-05-07T10:39:30;12.10;99.90
4052;DHT22;2040;50.924;11.604;2023-05-07T10:41:56;12.00;99.90
4052;DHT22;2040;50.924;11.604;2023-05-07T10:44:26;11.90;99.90
4052;DHT22;2040;50.924;11.604;2023-05-07T10:49:30;11.80;99.90
4052;DHT22;2040;50.924;11.604;2023-05-07T10:52:12;11.80;99.90
4052;DHT22;2040;50.924;11.604;2023-05-07T10:54:39;12.00;99.90
4052;DHT22;2040;50.924;11.604;2023-05-07T10:59:56;11.90;99.90
4052;DHT22;2040;50.924;11.604;2023-05-07T11:02:21;12.00;99.90
4052;DHT22;2040;50.924;11.604;2023-05-07T11:05:22;12.20;99.90
4052;DHT22;2040;50.924;11.604;2023-05-07T11:08:02;12.10;99.90
4052;DHT22;2040;50.924;11.604;2023-05-07T11:10:50;12.20;99.90
4052;DHT22;2040;50.924;11.604;2023-05-07T11:13:16;12.30;99.90
4052;DHT22;2040;50.924;11.604;2023-05-07T11:15:44;12.20;99.90
4052;DHT22;2040;50.924;11.604;2023-05-07T11:18:11;12.20;99.90
4052;DHT22;2040;50.924;11.604;2023-05-07T11:26:08;12.20;99.90
4052;DHT22;2040;50.924;11.604;2023-05-07T11:28:41;12.20;99.90
4052;DHT22;2040;50.924;11.604;2023-05-07T11:31:08;12.30;99.90
4052;DHT22;2040;50.924;11.604;2023-05-07T11:33:35;12.50;99.90
4052;DHT22;2040;50.924;11.604;2023-05-07T11:36:02;12.50;99.90
4052;DHT22;2040;50.924;11.604;2023-05-07T11:38:29;12.60;99.90
4052;DHT22;2040;50.924;11.604;2023-05-07T11:40:57;12.60;99.90
4052;DHT22;2040;50.924;11.604;2023-05-07T11:43:24;12.50;99.90
4052;DHT22;2040;50.924;11.604;2023-05-07T11:45:50;12.50;99.90
4052;DHT22;2040;50.924;11.604;2023-05-07T11:48:16;12.70;99.90
4052;DHT22;2040;50.924;11.604;2023-05-07T11:50:52;12.80;99.90
4052;DHT22;2040;50.924;11.604;2023-05-07T11:53:25;13.00;99.90
4052;DHT22;2040;50.924;11.604;2023-05-07T11:55:57;13.20;99.90
4052;DHT22;2040;50.924;11.604;2023-05-07T11:58:24;13.30;99.90
4052;DHT22;2040;50.924;11.604;2023-05-07T12:00:50;13.40;99.90
4052;DHT22;2040;50.924;11.604;2023-05-07T12:03:16;13.50;99.90
4052;DHT22;2040;50.924;11.604;2023-05-07T12:05:43;13.60;99.90
4052;DHT22;2040;50.924;11.604;2023-05-07T12:08:17;13.60;99.90
4052;DHT22;2040;50.924;11.604;2023-05-07T12:10:47;13.50;99.90
4052;DHT22;2040;50.924;11.604;2023-05-07T12:13:21;13.60;99.90
4052;DHT22;2040;50.924;11.604;2023-05-07T12:15:55;13.60;99.90
4052;DHT22;2040;50.924;11.604;2023-05-07T12:18:22;13.70;99.90
4052;DHT22;2040;50.924;11.604;2023-05-07T12:20:49;14.00;99.90
4052;DHT22;2040;50.924;11.604;2023-05-07T12:23:15;14.20;99.90
4052;DHT22;2040;50.924;11.604;2023-05-07T12:25:43;14.40;99.90
4052;DHT22;2040;50.924;11.604;2023-05-07T12:28:16;14.30;99.90
4052;DHT22;2040;50.924;11.604;2023-05-07T12:30:46;14.10;99.90
4052;DHT22;2040;50.924;11.604;2023-05-07T12:33:19;14.20;99.90
4052;DHT22;2040;50.924;11.604;2023-05-07T12:35:48;14.20;99.90
4052;DHT22;2040;50.924;11.604;2023-05-07T12:38:15;14.20;99.90
4052;DHT22;2040;50.924;11.604;2023-05-07T12:40:47;14.50;99.90
4052;DHT22;2040;50.924;11.604;2023-05-07T12:43:20;14.60;99.90
4052;DHT22;2040;50.924;11.604;2023-05-07T12:45:50;14.50;99.90
4052;DHT22;2040;50.924;11.604;2023-05-07T12:48:16;14.60;99.90
4052;DHT22;2040;50.924;11.604;2023-05-07T12:50:42;14.50;99.90
4052;DHT22;2040;50.924;11.604;2023-05-07T12:53:11;14.60;99.90
4052;DHT22;2040;50.924;11.604;2023-05-07T12:55:48;14.70;99.90
4052;DHT22;2040;50.924;11.604;2023-05-07T12:58:20;15.00;99.90
4052;DHT22;2040;50.924;11.604;2023-05-07T13:00:48;14.70;99.90
4052;DHT22;2040;50.924;11.604;2023-05-07T13:03:21;14.60;99.90
4052;DHT22;2040;50.924;11.604;2023-05-07T13:05:47;14.70;99.90
4052;DHT22;2040;50.924;11.604;2023-05-07T13:08:26;14.90;99.90
4052;DHT22;2040;50.924;11.604;2023-05-07T13:10:52;15.10;99.90
4052;DHT22;2040;50.924;11.604;2023-05-07T13:13:19;15.30;99.90
4052;DHT22;2040;50.924;11.604;2023-05-07T13:15:45;15.70;99.90
4052;DHT22;2040;50.924;11.604;2023-05-07T13:18:11;15.70;99.90
4052;DHT22;2040;50.924;11.604;2023-05-07T13:20:36;15.80;99.90
4052;DHT22;2040;50.924;11.604;2023-05-07T13:23:02;15.70;99.90
4052;DHT22;2040;50.924;11.604;2023-05-07T13:25:30;15.60;99.90
4052;DHT22;2040;50.924;11.604;2023-05-07T13:27:57;15.60;99.90
4052;DHT22;2040;50.924;11.604;2023-05-07T13:30:22;15.50;99.90
4052;DHT22;2040;50.924;11.604;2023-05-07T13:32:48;15.20;99.90
4052;DHT22;2040;50.924;11.604;2023-05-07T13:35:15;15.00;99.90
4052;DHT22;2040;50.924;11.604;2023-05-07T13:37:41;14.70;99.90
4052;DHT22;2040;50.924;11.604;2023-05-07T13:40:07;14.80;99.90
4052;DHT22;2040;50.924;11.604;2023-05-07T13:42:32;14.90;99.90
4052;DHT22;2040;50.924;11.604;2023-05-07T13:44:58;14.80;99.90
4052;DHT22;2040;50.924;11.604;2023-05-07T13:47:24;14.90;99.90
4052;DHT22;2040;50.924;11.604;2023-05-07T13:49:49;15.20;99.90
4052;DHT22;2040;50.924;11.604;2023-05-07T13:52:16;15.40;99.90
4052;DHT22;2040;50.924;11.604;2023-05-07T13:54:42;15.30;99.90
4052;DHT22;2040;50.924;11.604;2023-05-07T13:57:07;15.00;99.90
4052;DHT22;2040;50.924;11.604;2023-05-07T13:59:33;14.90;99.90
4052;DHT22;2040;50.924;11.604;2023-05-07T14:01:59;14.70;99.90
4052;DHT22;2040;50.924;11.604;2023-05-07T14:04:25;14.90;99.90
4052;DHT22;2040;50.924;11.604;2023-05-07T14:06:51;14.90;99.90
4052;DHT22;2040;50.924;11.604;2023-05-07T14:09:16;15.30;99.90
4052;DHT22;2040;50.924;11.604;2023-05-07T14:11:42;15.50;99.90
4052;DHT22;2040;50.924;11.604;2023-05-07T14:14:08;15.80;99.90
4052;DHT22;2040;50.924;11.604;2023-05-07T14:16:36;15.60;99.90
4052;DHT22;2040;50.924;11.604;2023-05-07T14:19:01;15.50;99.90
4052;DHT22;2040;50.924;11.604;2023-05-07T14:21:27;15.80;99.90
4052;DHT22;2040;50.924;11.604;2023-05-07T14:23:53;16.00;99.90
4052;DHT22;2040;50.924;11.604;2023-05-07T14:26:18;16.40;99.90
4052;DHT22;2040;50.924;11.604;2023-05-07T14:28:44;16.30;99.90
4052;DHT22;2040;50.924;11.604;2023-05-07T14:31:12;16.10;99.90
4052;DHT22;2040;50.924;11.604;2023-05-07T14:33:38;15.80;99.90
4052;DHT22;2040;50.924;11.604;2023-05-07T14:36:03;15.30;99.90
4052;DHT22;2040;50.924;11.604;2023-05-07T14:38:29;15.20;99.90
4052;DHT22;2040;50.924;11.604;2023-05-07T14:40:55;15.20;99.90
4052;DHT22;2040;50.924;11.604;2023-05-07T14:43:22;15.40;99.90
4052;DHT22;2040;50.924;11.604;2023-05-07T14:45:47;15.20;99.90
4052;DHT22;2040;50.924;11.604;2023-05-07T14:48:13;15.70;99.90
4052;DHT22;2040;50.924;11.604;2023-05-07T14:50:41;15.70;99.90
4052;DHT22;2040;50.924;11.604;2023-05-07T14:53:07;15.80;99.90
4052;DHT22;2040;50.924;11.604;2023-05-07T14:55:34;15.70;99.90
4052;DHT22;2040;50.924;11.604;2023-05-07T14:58:00;15.60;99.90
4052;DHT22;2040;50.924;11.604;2023-05-07T15:00:26;15.50;99.90
4052;DHT22;2040;50.924;11.604;2023-05-07T15:02:51;15.50;99.90
4052;DHT22;2040;50.924;11.604;2023-05-07T15:05:17;15.60;99.90
4052;DHT22;2040;50.924;11.604;2023-05-07T15:07:44;15.60;99.90
4052;DHT22;2040;50.924;11.604;2023-05-07T15:10:10;15.30;99.90
4052;DHT22;2040;50.924;11.604;2023-05-07T15:12:36;14.90;99.90
4052;DHT22;2040;50.924;11.604;2023-05-07T15:15:01;14.70;99.90
4052;DHT22;2040;50.924;11.604;2023-05-07T15:17:27;14.70;99.90
4052;DHT22;2040;50.924;11.604;2023-05-07T15:19:53;14.70;99.90
4052;DHT22;2040;50.924;11.604;2023-05-07T15:22:19;14.80;99.90
4052;DHT22;2040;50.924;11.604;2023-05-07T15:24:46;14.90;99.90
4052;DHT22;2040;50.924;11.604;2023-05-07T15:27:12;15.20;99.90
4052;DHT22;2040;50.924;11.604;2023-05-07T15:29:37;15.50;99.90
4052;DHT22;2040;50.924;11.604;2023-05-07T15:32:03;15.90;99.90
4052;DHT22;2040;50.924;11.604;2023-05-07T15:34:28;16.00;99.90
4052;DHT22;2040;50.924;11.604;2023-05-07T15:36:55;15.90;99.90
4052;DHT22;2040;50.924;11.604;2023-05-07T15:39:22;15.60;99.90
4052;DHT22;2040;50.924;11.604;2023-05-07T15:41:47;15.60;99.90
4052;DHT22;2040;50.924;11.604;2023-05-07T15:44:13;15.70;99.90
4052;DHT22;2040;50.924;11.604;2023-05-07T15:46:39;15.70;99.90
4052;DHT22;2040;50.924;11.604;2023-05-07T15:49:04;15.80;99.90
4052;DHT22;2040;50.924;11.604;2023-05-07T15:51:30;16.10;99.90
4052;DHT22;2040;50.924;11.604;2023-05-07T15:53:56;16.00;99.90
4052;DHT22;2040;50.924;11.604;2023-05-07T15:56:21;16.10;99.90
4052;DHT22;2040;50.924;11.604;2023-05-07T15:58:47;16.30;99.90
4052;DHT22;2040;50.924;11.604;2023-05-07T16:01:13;16.30;99.90